Time;durP1;ratioP1;P1;durP2;ratioP2;P2;SDS_P1;SDS_P2;PMS_P1;PMS_P2;Temp;Humidity;BMP_temperature;BMP_pressure;BME280_temperature;BME280_humidity;BME280_pressure;Samples;Min_cycle;Max_cycle;Signal;HPM_P1;HPM_P2
2021/11/14 00:02:07;;;;;;;26.98;10.07;;;8.60;99.90;;;;;;5025522;28;20034;-78
2021/11/14 00:04:34;;;;;;;24.05;9.27;;;8.60;99.90;;;;;;5025442;28;20057;-76
2021/11/14 00:06:59;;;;;;;37.38;10.30;;;8.60;99.90;;;;;;5026627;28;20037;-76
2021/11/14 00:09:28;;;;;;;25.30;8.80;;;8.60;99.90;;;;;;5026272;28;20037;-75
2021/11/14 00:11:54;;;;;;;23.70;9.82;;;8.60;99.90;;;;;;5026375;28;20102;-75
2021/11/14 00:14:20;;;;;;;27.90;8.68;;;8.60;99.90;;;;;;5026254;28;20085;-77
2021/11/14 00:16:45;;;;;;;21.60;8.88;;;8.60;99.90;;;;;;5026188;28;20033;-76
2021/11/14 00:19:11;;;;;;;26.33;8.35;;;8.60;99.90;;;;;;5025180;28;20026;-75
2021/11/14 00:21:40;;;;;;;25.05;8.75;;;8.60;99.90;;;;;;5026346;28;20036;-75
2021/11/14 00:24:07;;;;;;;22.77;8.88;;;8.60;99.90;;;;;;5026173;28;20036;-76
2021/11/14 00:26:32;;;;;;;19.90;8.90;;;8.60;99.90;;;;;;5024621;28;20125;-77
2021/11/14 00:28:58;;;;;;;23.73;8.38;;;8.50;99.90;;;;;;5024935;28;20046;-76
2021/11/14 00:31:24;;;;;;;21.10;8.10;;;8.50;99.90;;;;;;5025793;28;20046;-76
2021/11/14 00:33:50;;;;;;;32.72;8.50;;;8.60;99.90;;;;;;5024815;28;20034;-77
2021/11/14 00:36:21;;;;;;;31.85;9.32;;;8.60;99.90;;;;;;5025766;28;20056;-76
2021/11/14 00:38:48;;;;;;;20.10;7.82;;;8.50;99.90;;;;;;5026208;28;20128;-76
2021/11/14 00:41:14;;;;;;;23.25;7.82;;;8.50;99.90;;;;;;5024553;28;20026;-76
2021/11/14 00:43:40;;;;;;;32.35;9.13;;;8.60;99.90;;;;;;5025911;28;20037;-76
2021/11/14 00:46:08;;;;;;;23.08;7.90;;;8.50;99.90;;;;;;5025928;28;20025;-78
2021/11/14 00:48:34;;;;;;;15.65;6.22;;;8.60;99.90;;;;;;5024153;28;20053;-79
2021/11/14 00:51:03;;;;;;;18.63;6.72;;;8.50;99.90;;;;;;5024698;28;20041;-77
2021/11/14 00:53:30;;;;;;;17.88;6.97;;;8.50;99.90;;;;;;5024782;28;20034;-77
2021/11/14 00:55:56;;;;;;;21.58;7.53;;;8.50;99.90;;;;;;5024375;28;20120;-76
2021/11/14 00:58:22;;;;;;;20.40;8.10;;;8.60;99.90;;;;;;5025493;28;20101;-77
2021/11/14 01:00:47;;;;;;;21.77;7.50;;;8.50;99.90;;;;;;5025485;28;20094;-76
2021/11/14 01:03:13;;;;;;;17.10;7.25;;;8.50;99.90;;;;;;5025492;28;20026;-76
2021/11/14 01:05:42;;;;;;;25.90;7.90;;;8.50;99.90;;;;;;5024221;28;20037;-77
2021/11/14 01:08:10;;;;;;;16.20;6.00;;;8.50;99.90;;;;;;5025400;28;20026;-76
2021/11/14 01:10:41;;;;;;;15.55;7.13;;;8.50;99.90;;;;;;5023027;28;20534;-77
2021/11/14 01:13:07;;;;;;;11.70;5.78;;;8.50;99.90;;;;;;5025590;28;20041;-77
2021/11/14 01:15:34;;;;;;;18.48;6.45;;;8.50;99.90;;;;;;5025324;28;20109;-76
2021/11/14 01:18:00;;;;;;;21.48;6.13;;;8.50;99.90;;;;;;5025377;28;20022;-76
2021/11/14 01:20:33;;;;;;;18.55;6.78;;;8.50;99.90;;;;;;5025244;28;20124;-76
2021/11/14 01:23:02;;;;;;;11.65;5.75;;;8.50;99.90;;;;;;5024052;28;20084;-76
2021/11/14 01:25:27;;;;;;;17.40;6.35;;;8.50;99.90;;;;;;5025225;28;20086;-76
2021/11/14 01:27:53;;;;;;;14.30;5.50;;;8.50;99.90;;;;;;5024252;28;20030;-76
2021/11/14 01:30:23;;;;;;;19.83;7.38;;;8.50;99.90;;;;;;5025145;28;20410;-76
2021/11/14 01:32:50;;;;;;;15.25;6.38;;;8.50;99.90;;;;;;5024862;28;20033;-75
2021/11/14 01:35:17;;;;;;;19.20;6.90;;;8.50;99.90;;;;;;5025040;28;20033;-75
2021/11/14 01:37:43;;;;;;;19.88;6.60;;;8.50;99.90;;;;;;5023747;28;20026;-77
2021/11/14 01:40:12;;;;;;;16.10;5.75;;;8.50;99.90;;;;;;5024906;28;20080;-77
2021/11/14 01:42:38;;;;;;;14.88;6.35;;;8.50;99.90;;;;;;5023786;28;20026;-78
2021/11/14 01:45:06;;;;;;;24.63;7.00;;;8.50;99.90;;;;;;5023791;28;20418;-77
2021/11/14 01:47:32;;;;;;;18.25;6.60;;;8.40;99.90;;;;;;5025048;28;20030;-76
2021/11/14 01:49:57;;;;;;;16.50;5.95;;;8.50;99.90;;;;;;5025075;28;20041;-76
2021/11/14 01:52:27;;;;;;;19.42;6.57;;;8.50;99.90;;;;;;5023424;28;20037;-76
2021/11/14 01:54:53;;;;;;;18.67;7.18;;;8.50;99.90;;;;;;5024695;28;20026;-75
2021/11/14 01:57:20;;;;;;;10.55;5.45;;;8.50;99.90;;;;;;5023332;28;20118;-75
2021/11/14 01:59:46;;;;;;;16.75;5.68;;;8.50;99.90;;;;;;5024638;28;20032;-75
2021/11/14 02:02:13;;;;;;;15.75;7.18;;;8.50;99.90;;;;;;5023372;28;20089;-76
2021/11/14 02:04:41;;;;;;;17.27;6.32;;;8.50;99.90;;;;;;5024530;28;20407;-75
2021/11/14 02:07:08;;;;;;;19.83;6.78;;;8.50;99.90;;;;;;5023400;28;20029;-76
2021/11/14 02:09:34;;;;;;;19.45;7.70;;;8.50;99.90;;;;;;5024663;28;20033;-76
2021/11/14 02:12:01;;;;;;;26.30;7.22;;;8.50;99.90;;;;;;5023539;28;20044;-75
2021/11/14 02:14:28;;;;;;;26.50;8.30;;;8.50;99.90;;;;;;5023389;28;20026;-77
2021/11/14 02:16:55;;;;;;;17.27;6.85;;;8.50;99.90;;;;;;5024442;28;20022;-77
2021/11/14 02:19:20;;;;;;;22.02;7.57;;;8.50;99.90;;;;;;5024914;28;20033;-75
2021/11/14 02:21:46;;;;;;;15.00;7.38;;;8.50;99.90;;;;;;5026802;28;20471;-77
2021/11/14 02:24:12;;;;;;;15.23;7.13;;;8.50;99.90;;;;;;5027167;28;20021;-76
2021/11/14 02:26:40;;;;;;;20.70;6.82;;;8.60;99.90;;;;;;5028468;28;20022;-77
2021/11/14 02:29:07;;;;;;;19.77;7.70;;;8.50;99.90;;;;;;5028363;28;20098;-79
2021/11/14 02:31:32;;;;;;;18.67;7.63;;;8.50;99.90;;;;;;5028087;28;20060;-78
2021/11/14 02:34:00;;;;;;;20.70;6.55;;;8.50;99.90;;;;;;5028432;28;20058;-78
2021/11/14 02:36:26;;;;;;;15.48;6.22;;;8.50;99.90;;;;;;5028485;28;20038;-76
2021/11/14 02:38:52;;;;;;;20.83;7.35;;;8.50;99.90;;;;;;5028289;28;20080;-76
2021/11/14 02:41:19;;;;;;;23.05;7.55;;;8.50;99.90;;;;;;5026899;28;20108;-77
2021/11/14 02:43:46;;;;;;;20.80;8.82;;;8.50;99.90;;;;;;5026636;28;20073;-76
2021/11/14 02:46:13;;;;;;;20.77;7.85;;;8.50;99.90;;;;;;5026555;28;20026;-76
2021/11/14 02:48:51;;;;;;;23.08;8.50;;;8.50;99.90;;;;;;5026580;28;20108;-79
2021/11/14 02:51:23;;;;;;;20.45;8.23;;;8.50;99.90;;;;;;5027908;28;20029;-75
2021/11/14 02:53:49;;;;;;;24.98;8.43;;;8.50;99.90;;;;;;5028107;28;20025;-75
2021/11/14 02:56:15;;;;;;;23.17;8.00;;;8.50;99.90;;;;;;5027999;28;20022;-76
2021/11/14 02:58:42;;;;;;;31.10;8.90;;;8.50;99.90;;;;;;5026392;28;20458;-77
2021/11/14 03:01:16;;;;;;;26.42;8.88;;;8.50;99.90;;;;;;5026475;28;20033;-75
2021/11/14 03:03:44;;;;;;;25.38;9.35;;;8.50;99.90;;;;;;5026581;28;20109;-76
2021/11/14 03:06:10;;;;;;;25.23;9.23;;;8.50;99.90;;;;;;5026281;28;20029;-76
2021/11/14 03:08:37;;;;;;;19.92;8.50;;;8.50;99.90;;;;;;5026404;28;20083;-77
2021/11/14 03:11:03;;;;;;;27.42;9.93;;;8.40;99.90;;;;;;5032930;28;20021;-76
2021/11/14 03:13:43;;;;;;;23.80;7.45;;;8.50;99.90;;;;;;5047497;28;20026;-78
2021/11/14 03:16:11;;;;;;;23.13;8.68;;;8.50;99.90;;;;;;5047497;28;20040;-76
2021/11/14 03:18:37;;;;;;;24.88;8.07;;;8.60;99.90;;;;;;5047353;28;20022;-77
2021/11/14 03:21:04;;;;;;;33.78;8.65;;;8.50;99.90;;;;;;5046000;28;20076;-78
2021/11/14 03:23:31;;;;;;;27.92;8.70;;;8.50;99.90;;;;;;5062559;28;20072;-76
2021/11/14 03:25:58;;;;;;;19.88;7.82;;;8.50;99.90;;;;;;5047187;28;20065;-75
2021/11/14 03:28:24;;;;;;;33.60;10.55;;;8.60;99.90;;;;;;5062120;28;20049;-77
2021/11/14 03:30:52;;;;;;;28.83;9.00;;;8.50;99.90;;;;;;5046964;28;20058;-77
2021/11/14 03:33:25;;;;;;;23.13;9.15;;;8.60;99.90;;;;;;5046217;28;20079;-78
2021/11/14 03:36:04;;;;;;;27.80;9.80;;;8.60;99.90;;;;;;5046860;28;20545;-77
2021/11/14 03:38:51;;;;;;;21.90;8.65;;;8.60;99.90;;;;;;5045852;28;20030;-77
2021/11/14 03:41:21;;;;;;;28.85;9.27;;;8.50;99.90;;;;;;5047156;28;20030;-77
2021/11/14 03:43:50;;;;;;;31.05;10.98;;;8.60;99.90;;;;;;5047012;28;20018;-77
2021/11/14 03:46:16;;;;;;;36.92;10.35;;;8.60;99.90;;;;;;5045390;28;20047;-76
2021/11/14 03:48:44;;;;;;;31.65;11.23;;;8.60;99.90;;;;;;5046828;28;20132;-75
2021/11/14 03:51:11;;;;;;;37.03;10.73;;;8.50;99.90;;;;;;5045465;28;20025;-77
2021/11/14 03:53:37;;;;;;;29.00;10.77;;;8.60;99.90;;;;;;5046789;28;20037;-76
2021/11/14 03:56:04;;;;;;;31.80;11.25;;;8.50;99.90;;;;;;5045255;28;20021;-78
2021/11/14 03:58:31;;;;;;;25.48;9.52;;;8.60;99.90;;;;;;5046665;28;20080;-78
2021/11/14 04:00:59;;;;;;;25.92;10.45;;;8.60;99.90;;;;;;5046366;28;20033;-77
2021/11/14 04:03:27;;;;;;;29.38;10.70;;;8.60;99.90;;;;;;5045137;28;20022;-77
2021/11/14 04:05:53;;;;;;;38.72;11.07;;;8.60;99.90;;;;;;5046472;28;20056;-76
2021/11/14 04:08:22;;;;;;;26.40;10.02;;;8.60;99.90;;;;;;5046444;28;20034;-77
2021/11/14 04:10:49;;;;;;;44.60;12.00;;;8.60;99.90;;;;;;5046340;28;20025;-77
2021/11/14 04:13:16;;;;;;;33.38;11.32;;;8.60;99.90;;;;;;5046379;28;20528;-76
2021/11/14 04:15:43;;;;;;;34.42;11.57;;;8.60;99.90;;;;;;5046262;28;20029;-77
2021/11/14 04:18:09;;;;;;;45.58;12.55;;;8.60;99.90;;;;;;5046184;28;20029;-76
2021/11/14 04:20:37;;;;;;;30.90;11.10;;;8.60;99.90;;;;;;5044772;28;20031;-76
2021/11/14 04:23:04;;;;;;;48.58;12.50;;;8.60;99.90;;;;;;5046318;28;20117;-78
2021/11/14 04:25:30;;;;;;;36.45;11.30;;;8.60;99.90;;;;;;5046200;28;20026;-78
2021/11/14 04:27:57;;;;;;;42.53;11.77;;;8.60;99.90;;;;;;5046054;28;20498;-76
2021/11/14 04:30:23;;;;;;;34.30;11.10;;;8.60;99.90;;;;;;5045679;28;20080;-77
2021/11/14 04:32:49;;;;;;;44.97;11.95;;;8.60;99.90;;;;;;5044523;28;20451;-76
2021/11/14 04:35:15;;;;;;;34.40;9.70;;;8.60;99.90;;;;;;5045704;28;20026;-76
2021/11/14 04:37:41;;;;;;;30.10;10.95;;;8.60;99.90;;;;;;5045793;28;20033;-76
2021/11/14 04:40:08;;;;;;;34.45;12.20;;;8.70;99.90;;;;;;5044499;28;20134;-76
2021/11/14 04:42:35;;;;;;;56.63;12.02;;;8.50;99.90;;;;;;5044264;28;20083;-77
2021/11/14 04:45:01;;;;;;;37.15;11.82;;;8.60;99.90;;;;;;5045562;28;20032;-75
2021/11/14 04:47:27;;;;;;;32.13;11.43;;;8.60;99.90;;;;;;5045476;28;20112;-76
2021/11/14 04:49:53;;;;;;;28.88;11.13;;;8.60;99.90;;;;;;5044146;28;20148;-76
2021/11/14 04:52:18;;;;;;;35.40;12.07;;;8.60;99.90;;;;;;5044098;28;20029;-77
2021/11/14 04:54:44;;;;;;;47.05;13.65;;;8.60;99.90;;;;;;5045398;28;20088;-76
2021/11/14 04:57:10;;;;;;;31.20;12.18;;;8.60;99.90;;;;;;5045459;28;20383;-77
2021/11/14 04:59:36;;;;;;;35.00;11.32;;;8.60;99.90;;;;;;5045351;28;20109;-78
2021/11/14 05:02:01;;;;;;;37.35;12.13;;;8.60;99.90;;;;;;5045257;28;20532;-78
2021/11/14 05:04:27;;;;;;;29.33;11.65;;;8.60;99.90;;;;;;5044105;28;20036;-79
2021/11/14 05:06:53;;;;;;;38.33;12.57;;;8.60;99.90;;;;;;5045211;28;20034;-77
2021/11/14 05:09:19;;;;;;;32.05;12.70;;;8.60;99.90;;;;;;5045007;28;20052;-78
2021/11/14 05:11:44;;;;;;;33.75;11.07;;;8.70;99.90;;;;;;5043858;28;20076;-78
2021/11/14 05:14:10;;;;;;;38.22;12.45;;;8.60;99.90;;;;;;5043634;28;20029;-77
2021/11/14 05:16:36;;;;;;;41.53;11.27;;;8.60;99.90;;;;;;5045142;28;20048;-78
2021/11/14 05:19:01;;;;;;;31.85;10.88;;;8.60;99.90;;;;;;5043864;28;20033;-78
2021/11/14 05:21:27;;;;;;;38.03;11.63;;;8.60;99.90;;;;;;5043925;28;20029;-77
2021/11/14 05:23:52;;;;;;;38.13;12.25;;;8.60;99.90;;;;;;5043492;28;20118;-78
2021/11/14 05:26:18;;;;;;;30.70;10.63;;;8.60;99.90;;;;;;5043630;28;20021;-77
2021/11/14 05:28:44;;;;;;;32.30;12.48;;;8.60;99.90;;;;;;5044651;28;20041;-76
2021/11/14 05:31:10;;;;;;;32.75;12.60;;;8.60;99.90;;;;;;5044683;28;20052;-78
2021/11/14 05:33:36;;;;;;;35.40;11.40;;;8.60;99.90;;;;;;5043834;28;20419;-76
2021/11/14 05:36:02;;;;;;;33.53;11.75;;;8.60;99.90;;;;;;5043530;28;20025;-77
2021/11/14 05:38:27;;;;;;;31.98;11.07;;;8.60;99.90;;;;;;5043765;28;20032;-76
2021/11/14 05:40:53;;;;;;;38.35;12.90;;;8.60;99.90;;;;;;5044766;28;20025;-76
2021/11/14 05:43:19;;;;;;;37.90;12.23;;;8.60;99.90;;;;;;5043613;28;20033;-77
2021/11/14 05:45:44;;;;;;;33.40;11.40;;;8.60;99.90;;;;;;5045128;28;20031;-75
2021/11/14 05:48:10;;;;;;;35.08;12.35;;;8.60;99.90;;;;;;5044345;28;20034;-76
2021/11/14 05:50:37;;;;;;;44.95;13.60;;;8.50;99.90;;;;;;5045632;28;20030;-77
2021/11/14 05:53:04;;;;;;;37.40;11.65;;;8.60;99.90;;;;;;5043967;28;20036;-77
2021/11/14 05:55:29;;;;;;;33.65;12.13;;;8.60;99.90;;;;;;5043248;28;20084;-76
2021/11/14 05:57:58;;;;;;;34.67;12.25;;;8.60;99.90;;;;;;5044518;28;20029;-78
2021/11/14 06:03:06;;;;;;;35.47;11.77;;;8.50;99.90;;;;;;5044761;28;20036;-76
2021/11/14 06:05:38;;;;;;;41.55;12.35;;;8.60;99.90;;;;;;5044843;28;20018;-78
2021/11/14 06:08:05;;;;;;;28.70;11.02;;;8.50;99.90;;;;;;5043375;28;20036;-78
2021/11/14 06:10:31;;;;;;;33.45;11.60;;;8.60;99.90;;;;;;5044542;28;20096;-78
2021/11/14 06:12:57;;;;;;;32.58;10.88;;;8.50;99.90;;;;;;5038667;28;20050;-75
2021/11/14 06:15:24;;;;;;;36.03;12.55;;;8.60;99.90;;;;;;5024352;28;20092;-76
2021/11/14 06:17:50;;;;;;;29.02;12.98;;;8.60;99.90;;;;;;5043614;28;20054;-77
2021/11/14 06:20:18;;;;;;;35.83;13.02;;;8.60;99.90;;;;;;5043078;28;20091;-76
2021/11/14 06:22:43;;;;;;;32.22;11.63;;;8.60;99.90;;;;;;5044207;28;20029;-77
2021/11/14 06:25:09;;;;;;;39.03;12.63;;;8.50;99.90;;;;;;5043190;28;20923;-79
2021/11/14 06:27:36;;;;;;;36.22;12.40;;;8.50;99.90;;;;;;5043060;28;20026;-78
2021/11/14 06:30:04;;;;;;;30.40;11.23;;;8.60;99.90;;;;;;5039759;28;20050;-76
2021/11/14 06:32:30;;;;;;;32.95;11.60;;;8.60;99.90;;;;;;5024658;28;20089;-77
2021/11/14 06:34:55;;;;;;;46.47;12.20;;;8.60;99.90;;;;;;5023061;28;20081;-76
2021/11/14 06:37:21;;;;;;;31.63;11.55;;;8.50;99.90;;;;;;5024433;28;20059;-78
2021/11/14 06:39:47;;;;;;;31.73;11.23;;;8.70;99.90;;;;;;5022799;28;20084;-77
2021/11/14 06:42:12;;;;;;;39.17;12.90;;;8.60;99.90;;;;;;5024122;28;20026;-78
2021/11/14 06:44:38;;;;;;;30.52;10.85;;;8.60;99.90;;;;;;5022965;28;20053;-78
2021/11/14 06:47:04;;;;;;;33.80;11.57;;;8.60;99.90;;;;;;5023137;28;20030;-78
2021/11/14 06:49:31;;;;;;;38.58;11.98;;;8.60;99.90;;;;;;5024499;28;20101;-77
2021/11/14 06:51:56;;;;;;;22.38;9.75;;;8.60;99.90;;;;;;5024308;28;20032;-79
2021/11/14 06:54:22;;;;;;;30.60;11.45;;;8.50;99.90;;;;;;5023773;28;20057;-77
2021/11/14 06:56:48;;;;;;;35.65;10.63;;;8.60;99.90;;;;;;5022947;28;20028;-78
2021/11/14 06:59:13;;;;;;;29.98;11.77;;;8.60;99.90;;;;;;5022883;28;20480;-77
2021/11/14 07:01:42;;;;;;;29.45;12.10;;;8.60;99.90;;;;;;5024369;28;20033;-77
2021/11/14 07:04:08;;;;;;;37.63;12.18;;;8.60;99.90;;;;;;5023852;28;20558;-78
2021/11/14 07:06:34;;;;;;;33.83;10.18;;;8.60;99.90;;;;;;5023943;28;20049;-80
2021/11/14 07:08:59;;;;;;;34.90;11.98;;;8.60;99.90;;;;;;5031784;28;20046;-78
2021/11/14 07:11:25;;;;;;;26.48;9.82;;;8.60;99.90;;;;;;5044941;28;20056;-79
2021/11/14 07:13:50;;;;;;;36.40;10.88;;;8.60;99.90;;;;;;5056369;28;20037;-78
2021/11/14 07:16:16;;;;;;;26.70;10.50;;;8.60;99.90;;;;;;5045823;28;20032;-77
2021/11/14 07:18:42;;;;;;;29.92;10.52;;;8.60;99.90;;;;;;5061780;28;20025;-79
2021/11/14 07:21:08;;;;;;;26.70;10.60;;;8.60;99.90;;;;;;5032548;28;20125;-79
2021/11/14 07:23:34;;;;;;;28.98;10.30;;;8.60;99.90;;;;;;5043752;28;20026;-78
2021/11/14 07:26:00;;;;;;;26.10;10.00;;;8.60;99.90;;;;;;5027218;28;20808;-77
2021/11/14 07:28:26;;;;;;;29.15;10.15;;;8.60;99.90;;;;;;5027848;28;20060;-78
2021/11/14 07:30:52;;;;;;;24.80;10.25;;;8.60;99.90;;;;;;5044946;28;20506;-79
2021/11/14 07:33:24;;;;;;;38.20;10.90;;;8.60;99.90;;;;;;5038847;28;20029;-78
2021/11/14 07:36:05;;;;;;;25.45;10.18;;;8.70;99.90;;;;;;5036254;28;20034;-78
2021/11/14 07:38:31;;;;;;;40.42;11.82;;;8.60;99.90;;;;;;5039547;28;20045;-77
2021/11/14 07:40:57;;;;;;;38.03;11.07;;;8.70;99.90;;;;;;5045540;28;20030;-77
2021/11/14 07:43:30;;;;;;;29.50;11.35;;;8.70;99.90;;;;;;5045338;28;20025;-79
2021/11/14 07:45:55;;;;;;;33.67;10.88;;;8.70;99.90;;;;;;5043608;28;20095;-77
2021/11/14 07:48:21;;;;;;;29.35;11.70;;;8.70;99.90;;;;;;5044942;28;20848;-79
2021/11/14 07:50:47;;;;;;;35.30;11.75;;;8.70;99.90;;;;;;5045218;28;20033;-78
2021/11/14 07:53:13;;;;;;;21.08;9.20;;;8.70;99.90;;;;;;5061226;28;20053;-78
2021/11/14 07:55:39;;;;;;;26.88;11.35;;;8.70;99.90;;;;;;5064187;28;20079;-79
2021/11/14 07:58:06;;;;;;;37.63;11.63;;;8.70;99.90;;;;;;5038034;28;20037;-79
2021/11/14 08:00:34;;;;;;;28.05;11.45;;;8.70;99.90;;;;;;5044545;28;20036;-78
2021/11/14 08:03:00;;;;;;;30.33;10.10;;;8.70;99.90;;;;;;5026311;28;20030;-78
2021/11/14 08:05:28;;;;;;;28.30;10.48;;;8.80;99.90;;;;;;5038321;28;20033;-79
2021/11/14 08:07:54;;;;;;;31.65;10.88;;;8.80;99.90;;;;;;5053313;28;20052;-78
2021/11/14 08:10:20;;;;;;;33.00;11.77;;;8.80;99.90;;;;;;5065126;28;20048;-77
2021/11/14 08:12:47;;;;;;;30.83;11.05;;;8.80;99.90;;;;;;5042818;28;20085;-77
2021/11/14 08:15:14;;;;;;;27.15;9.85;;;8.90;99.90;;;;;;5058909;28;20032;-79
2021/11/14 08:17:40;;;;;;;30.17;11.70;;;8.80;99.90;;;;;;5059044;28;20035;-80
2021/11/14 08:20:07;;;;;;;30.73;13.68;;;8.80;99.90;;;;;;5063650;28;20047;-79
2021/11/14 08:22:34;;;;;;;38.17;12.65;;;8.80;99.90;;;;;;5065842;28;20061;-79
2021/11/14 08:25:01;;;;;;;37.60;10.90;;;8.80;99.90;;;;;;5064918;28;20029;-79
2021/11/14 08:27:28;;;;;;;38.85;13.23;;;8.90;99.90;;;;;;5043977;28;20088;-80
2021/11/14 08:29:54;;;;;;;41.10;12.68;;;8.90;99.90;;;;;;5025530;28;21022;-79
2021/11/14 08:32:20;;;;;;;37.78;12.23;;;8.90;99.90;;;;;;5027799;28;20394;-80
2021/11/14 08:34:46;;;;;;;32.60;12.65;;;8.90;99.90;;;;;;5042683;28;20093;-79
2021/11/14 08:37:24;;;;;;;27.27;10.98;;;9.00;99.90;;;;;;5044382;28;20036;-80
2021/11/14 08:39:50;;;;;;;28.02;10.93;;;9.00;99.90;;;;;;5045627;28;20026;-79
2021/11/14 08:42:16;;;;;;;33.97;11.20;;;8.90;99.90;;;;;;5044630;28;20025;-79
2021/11/14 08:44:43;;;;;;;30.98;11.30;;;9.00;99.90;;;;;;5044688;28;20029;-78
2021/11/14 08:47:18;;;;;;;40.47;12.50;;;9.00;99.90;;;;;;5029425;28;20025;-80
2021/11/14 08:49:44;;;;;;;28.02;10.82;;;9.00;99.90;;;;;;5026627;28;20116;-77
2021/11/14 08:52:11;;;;;;;32.92;10.43;;;9.00;99.90;;;;;;5024774;28;20547;-78
2021/11/14 08:54:37;;;;;;;36.13;11.57;;;9.00;99.90;;;;;;5027725;28;20401;-78
2021/11/14 08:57:04;;;;;;;41.00;9.82;;;9.00;99.90;;;;;;5034438;28;20086;-80
2021/11/14 08:59:33;;;;;;;32.95;10.18;;;9.00;99.90;;;;;;5028698;28;20037;-80
2021/11/14 09:02:00;;;;;;;35.53;10.82;;;9.00;99.90;;;;;;5030120;28;20041;-77
2021/11/14 09:04:27;;;;;;;40.92;10.25;;;9.00;99.90;;;;;;5028773;28;20026;-79
2021/11/14 09:06:54;;;;;;;24.73;10.30;;;9.00;99.90;;;;;;5029820;28;20057;-78
2021/11/14 09:09:21;;;;;;;39.40;10.77;;;9.00;99.90;;;;;;5028875;28;20070;-78
2021/11/14 09:11:47;;;;;;;32.47;11.10;;;9.00;99.90;;;;;;5028688;28;20053;-80
2021/11/14 09:14:13;;;;;;;36.80;11.38;;;9.00;99.90;;;;;;5028226;28;20026;-80
2021/11/14 09:16:38;;;;;;;25.48;10.55;;;9.00;99.90;;;;;;5030924;28;20025;-81
2021/11/14 09:19:07;;;;;;;40.78;11.60;;;9.00;99.90;;;;;;5051057;28;20036;-80
2021/11/14 09:21:35;;;;;;;31.20;11.00;;;8.90;99.90;;;;;;5035109;28;20096;-80
2021/11/14 09:24:16;;;;;;;29.15;11.35;;;9.00;99.90;;;;;;5029653;28;20044;-81
2021/11/14 09:26:42;;;;;;;36.75;13.02;;;9.00;99.90;;;;;;5027343;28;20098;-80
2021/11/14 09:29:09;;;;;;;59.22;14.32;;;9.00;99.90;;;;;;5027129;28;20049;-80
2021/11/14 09:31:35;;;;;;;41.35;13.10;;;9.00;99.90;;;;;;5024917;28;20074;-78
2021/11/14 09:34:03;;;;;;;49.47;14.43;;;9.10;99.90;;;;;;5027035;28;20039;-80
2021/11/14 09:36:34;;;;;;;53.03;14.63;;;9.10;99.90;;;;;;5042633;28;20037;-80
2021/11/14 09:39:07;;;;;;;37.63;11.07;;;9.10;99.90;;;;;;5043226;28;20026;-80
2021/11/14 09:41:38;;;;;;;49.30;12.77;;;9.10;99.90;;;;;;5025945;28;20026;-80
2021/11/14 09:44:04;;;;;;;35.50;11.85;;;9.20;99.90;;;;;;5044597;28;20029;-81
2021/11/14 09:46:30;;;;;;;40.50;12.80;;;9.20;99.90;;;;;;5034432;28;20060;-80
2021/11/14 09:48:58;;;;;;;43.03;11.50;;;9.20;99.90;;;;;;5024744;28;20505;-80
2021/11/14 09:51:26;;;;;;;38.67;12.57;;;9.20;99.90;;;;;;5029073;28;21231;-82
2021/11/14 09:53:53;;;;;;;45.50;12.30;;;9.30;99.90;;;;;;5044860;28;20060;-81
2021/11/14 09:56:20;;;;;;;31.90;10.45;;;9.30;99.90;;;;;;5044931;28;20018;-82
2021/11/14 09:58:45;;;;;;;32.22;11.50;;;9.30;99.90;;;;;;5036813;28;20030;-80
2021/11/14 10:01:11;;;;;;;38.80;12.20;;;9.30;99.90;;;;;;5023612;28;20026;-81
2021/11/14 10:04:01;;;;;;;39.58;11.82;;;9.30;99.90;;;;;;5024752;28;20475;-83
2021/11/14 10:06:27;;;;;;;40.17;13.05;;;9.40;99.90;;;;;;5033446;28;20101;-80
2021/11/14 10:08:52;;;;;;;50.53;14.18;;;9.30;99.90;;;;;;5044455;28;20060;-81
2021/11/14 10:11:19;;;;;;;44.13;12.38;;;9.40;99.90;;;;;;5049554;28;20029;-80
2021/11/14 10:13:47;;;;;;;31.65;11.75;;;9.40;99.90;;;;;;5044618;28;20157;-80
2021/11/14 10:16:19;;;;;;;35.83;11.60;;;9.40;99.90;;;;;;5044908;28;20026;-79
2021/11/14 10:19:00;;;;;;;31.13;10.65;;;9.40;99.90;;;;;;5044377;28;20036;-81
2021/11/14 10:21:28;;;;;;;40.63;11.50;;;9.40;99.90;;;;;;5024666;28;20034;-81
2021/11/14 10:23:54;;;;;;;27.98;11.02;;;9.40;99.90;;;;;;5025823;28;20026;-80
2021/11/14 10:26:21;;;;;;;34.88;11.20;;;9.50;99.90;;;;;;5032313;28;20074;-80
2021/11/14 10:28:48;;;;;;;36.30;11.05;;;9.50;99.90;;;;;;5064916;28;20170;-80
2021/11/14 10:31:22;;;;;;;28.77;12.70;;;9.50;99.90;;;;;;5063643;28;20041;-78
2021/11/14 10:33:50;;;;;;;39.65;11.02;;;9.50;99.90;;;;;;5064043;28;20032;-80
2021/11/14 10:36:16;;;;;;;38.00;10.05;;;9.50;99.90;;;;;;5063737;28;20029;-78
2021/11/14 10:38:43;;;;;;;33.38;11.13;;;9.50;99.90;;;;;;5063813;28;20084;-79
2021/11/14 10:41:12;;;;;;;31.83;10.15;;;9.50;99.90;;;;;;5065393;28;20029;-80
2021/11/14 10:43:40;;;;;;;30.40;10.82;;;9.60;99.90;;;;;;5067548;28;20469;-81
2021/11/14 10:46:20;;;;;;;36.58;11.93;;;9.60;99.90;;;;;;5058856;28;20017;-80
2021/11/14 10:48:47;;;;;;;36.13;11.02;;;9.60;99.90;;;;;;5061478;28;20049;-80
2021/11/14 10:51:13;;;;;;;40.72;10.60;;;9.70;99.90;;;;;;5046285;28;20021;-79
2021/11/14 10:53:46;;;;;;;29.33;10.07;;;9.70;99.90;;;;;;5042402;28;20101;-81
2021/11/14 10:56:14;;;;;;;31.13;9.68;;;9.80;99.90;;;;;;5038972;28;20052;-80
2021/11/14 10:58:42;;;;;;;34.50;10.45;;;9.80;99.90;;;;;;5029229;28;20034;-84
2021/11/14 11:01:11;;;;;;;26.02;8.98;;;9.80;99.90;;;;;;5044982;28;20025;-81
2021/11/14 11:04:02;;;;;;;30.73;9.60;;;9.80;99.90;;;;;;5046761;28;20045;-83
2021/11/14 11:06:29;;;;;;;24.95;8.60;;;9.80;99.90;;;;;;5040071;28;20064;-80
2021/11/14 11:09:00;;;;;;;29.23;7.75;;;9.80;99.90;;;;;;5027852;28;20061;-79
2021/11/14 11:11:26;;;;;;;26.73;7.30;;;9.90;99.90;;;;;;5026649;28;20456;-81
2021/11/14 11:13:54;;;;;;;23.70;8.38;;;9.90;99.90;;;;;;5041713;28;20029;-81
2021/11/14 11:16:21;;;;;;;26.33;8.25;;;9.90;99.90;;;;;;5046663;28;20030;-80
2021/11/14 11:18:55;;;;;;;30.08;8.82;;;9.90;99.90;;;;;;5046176;28;20488;-80
2021/11/14 11:21:21;;;;;;;17.63;7.82;;;9.90;99.90;;;;;;5039969;28;20036;-80
2021/11/14 11:23:47;;;;;;;29.17;8.18;;;10.00;99.90;;;;;;5031420;28;20025;-81
2021/11/14 11:26:18;;;;;;;18.83;7.15;;;10.00;99.90;;;;;;5046425;28;20021;-80
2021/11/14 11:28:47;;;;;;;19.50;6.22;;;10.00;99.90;;;;;;5046335;28;20049;-81
2021/11/14 11:31:22;;;;;;;29.08;8.13;;;10.00;99.90;;;;;;5044756;28;20045;-82
2021/11/14 11:33:54;;;;;;;20.63;7.80;;;10.10;99.90;;;;;;5045764;28;20053;-82
2021/11/14 11:36:21;;;;;;;22.70;7.22;;;10.00;99.90;;;;;;5044497;28;20085;-78
2021/11/14 11:38:47;;;;;;;18.35;7.72;;;10.10;99.90;;;;;;5045445;28;20064;-79
2021/11/14 11:41:17;;;;;;;19.75;7.32;;;10.10;99.90;;;;;;5033599;28;20026;-78
2021/11/14 11:43:44;;;;;;;17.77;6.32;;;10.10;99.90;;;;;;5027575;28;20026;-80
2021/11/14 11:46:28;;;;;;;17.52;6.80;;;10.10;99.90;;;;;;5027568;28;20052;-79
2021/11/14 11:49:08;;;;;;;24.88;6.68;;;10.00;99.90;;;;;;5041406;28;20056;-78
2021/11/14 11:51:44;;;;;;;16.55;7.45;;;10.20;99.90;;;;;;5027573;28;20030;-80
2021/11/14 11:54:20;;;;;;;18.05;7.10;;;10.00;99.90;;;;;;5024733;28;20036;-78
2021/11/14 11:56:50;;;;;;;20.52;7.95;;;10.00;99.90;;;;;;5027348;28;20025;-79
2021/11/14 11:59:26;;;;;;;26.35;8.88;;;10.00;99.90;;;;;;5026175;28;20033;-81
2021/11/14 12:01:58;;;;;;;21.98;8.18;;;10.00;99.90;;;;;;5040718;28;20030;-80
2021/11/14 12:04:39;;;;;;;23.60;7.43;;;10.00;99.90;;;;;;5045866;28;20033;-78
2021/11/14 12:07:05;;;;;;;22.10;7.40;;;10.00;99.90;;;;;;5045951;28;20044;-79
2021/11/14 12:09:40;;;;;;;30.33;7.82;;;10.00;99.90;;;;;;5045908;28;20103;-78
2021/11/14 12:12:17;;;;;;;21.85;7.55;;;10.00;99.90;;;;;;5046822;28;20064;-80
2021/11/14 12:14:43;;;;;;;21.15;7.18;;;10.00;99.90;;;;;;5043989;28;20061;-77
2021/11/14 12:17:09;;;;;;;23.95;8.55;;;10.00;99.90;;;;;;5047504;28;20026;-79
2021/11/14 12:19:38;;;;;;;18.98;7.65;;;10.00;99.90;;;;;;5039910;28;20033;-79
2021/11/14 12:22:13;;;;;;;24.23;7.93;;;10.00;99.90;;;;;;5027658;28;20109;-79
2021/11/14 12:24:56;;;;;;;22.15;7.93;;;10.00;99.90;;;;;;5046801;28;20116;-78
2021/11/14 12:27:27;;;;;;;19.88;8.20;;;10.00;99.90;;;;;;5046072;28;20648;-79
2021/11/14 12:30:01;;;;;;;17.98;7.55;;;10.00;99.90;;;;;;5041973;28;20580;-78
2021/11/14 12:32:39;;;;;;;20.75;8.05;;;10.00;99.90;;;;;;5026617;28;20109;-78
2021/11/14 12:35:06;;;;;;;25.80;7.85;;;10.00;99.90;;;;;;5028264;28;20034;-78
2021/11/14 12:37:33;;;;;;;17.70;7.68;;;9.90;99.90;;;;;;5040627;28;20036;-79
2021/11/14 12:40:22;;;;;;;23.08;6.88;;;9.90;99.90;;;;;;5043174;28;20017;-79
2021/11/14 12:42:52;;;;;;;22.52;7.70;;;9.90;99.90;;;;;;5045031;28;20363;-77
2021/11/14 12:45:19;;;;;;;22.27;8.68;;;9.80;99.90;;;;;;5042376;28;20029;-80
2021/11/14 12:47:47;;;;;;;22.90;8.80;;;9.80;99.90;;;;;;5044041;28;20035;-79